This is the latest recevied weather packets stored in our database for station/object OK0BPL-5. If no packets are shown the sender has not sent any weather packets the latest 1 day(s).
| Time | Temp. | Humidity | Pressure | Rain* | Wind** | Luminosity | Snow |
|---|---|---|---|---|---|---|---|
| 1788532897 | 28.89° C | 39% | 1006.7 hPa | 0 mm | 3.13 m/s, 222° | 140 W/m² | - |
| 1788531998 | 28.33° C | 41% | 1006.6 hPa | 0 mm | 4.92 m/s, 180° | 162 W/m² | - |
| 1788531997 | 28.33° C | 41% | 1006.6 hPa | 0 mm | 4.92 m/s, 180° | 162 W/m² | - |
| 1788531997 | 28.33° C | 41% | 1006.6 hPa | 0 mm | 4.92 m/s, 180° | 162 W/m² | - |
| 1788531097 | 27.78° C | 42% | 1007 hPa | 0 mm | 4.92 m/s, 222° | 177 W/m² | - |
| 1788530198 | 27.78° C | 42% | 1006.9 hPa | 0 mm | 4.02 m/s, 180° | 192 W/m² | - |
| 1788530197 | 27.78° C | - | - | 0 mm | 4.02 m/s, 180° | 192 W/m² | - |
| 1788530197 | 27.78° C | 42% | 1006.9 hPa | 0 mm | 4.02 m/s, 180° | 192 W/m² | - |
| 1788530197 | 27.78° C | 42% | 1006.9 hPa | 0 mm | 4.02 m/s, 180° | 192 W/m² | - |
| 1788529299 | 27.22° C | 43% | 1007.3 hPa | 0 mm | 4.02 m/s, 222° | 221 W/m² | - |
| 1788529297 | 27.22° C | 43% | 1007.3 hPa | 0 mm | 4.02 m/s, 222° | 221 W/m² | - |
| 1788529297 | 27.22° C | 43% | 1007.3 hPa | 0 mm | 4.02 m/s, 222° | 221 W/m² | - |
| 1788528398 | 26.11° C | 47% | 1007.9 hPa | 0 mm | 3.13 m/s, 180° | 82 W/m² | - |
| 1788528397 | 26.11° C | 47% | 1007.9 hPa | 0 mm | 3.13 m/s, 180° | 82 W/m² | - |
| 1788528397 | 26.11° C | 47% | 1007.9 hPa | 0 mm | 3.13 m/s, 180° | 82 W/m² | - |
| 1788527499 | 26.67° C | 46% | 1008.2 hPa | 0 mm | 3.13 m/s, 270° | 134 W/m² | - |
| 1788527497 | 26.67° C | 46% | 1008.2 hPa | 0 mm | 3.13 m/s, 270° | 134 W/m² | - |
| 1788527497 | 26.67° C | 46% | 1008.2 hPa | 0 mm | 3.13 m/s, 270° | 134 W/m² | - |
| 1788526598 | 26.67° C | 46% | 1008.4 hPa | 0 mm | 4.92 m/s, 180° | 302 W/m² | - |
| 1788526597 | 26.67° C | 46% | 1008.4 hPa | 0 mm | 4.92 m/s, 180° | 302 W/m² | - |
| 1788526597 | 26.67° C | 46% | 1008.4 hPa | 0 mm | 4.92 m/s, 180° | 302 W/m² | - |
| 1788525698 | 26.67° C | 45% | 1008.7 hPa | 0 mm | 4.02 m/s, 180° | 104 W/m² | - |
| 1788525697 | 26.67° C | 45% | 1008.7 hPa | 0 mm | 4.02 m/s, 180° | 104 W/m² | - |
| 1788525697 | 26.67° C | 45% | 1008.7 hPa | 0 mm | 4.02 m/s, 180° | 104 W/m² | - |
| 1788524798 | 25° C | 50% | 1009.3 hPa | 0 mm | 6.71 m/s, 222° | 163 W/m² | - |
* Rain latest hour (hover to see other rain measurements)
** Current wind speed in m/s (hover to see current wind gust speed)